Time;durP1;ratioP1;P1;durP2;ratioP2;P2;SDS_P1;SDS_P2;PMS_P1;PMS_P2;Temp;Humidity;BMP_temperature;BMP_pressure;BME280_temperature;BME280_humidity;BME280_pressure;Samples;Min_cycle;Max_cycle;Signal;HPM_P1;HPM_P2
2022/09/03 00:01:26;;;;;;;3.93;2.00;;;19.50;99.90;;;;;;4982544;28;20206;-51
2022/09/03 00:04:07;;;;;;;2.63;1.90;;;19.40;99.90;;;;;;4987630;28;20667;-51
2022/09/03 00:06:41;;;;;;;2.70;1.93;;;19.40;99.90;;;;;;4987127;28;20209;-49
2022/09/03 00:09:23;;;;;;;2.47;1.70;;;19.40;99.90;;;;;;4984283;28;20256;-51
2022/09/03 00:12:09;;;;;;;4.83;2.47;;;19.30;99.90;;;;;;4985117;28;20271;-49
2022/09/03 00:14:38;;;;;;;3.30;2.10;;;19.30;99.90;;;;;;4992630;28;20293;-51
2022/09/03 00:17:13;;;;;;;3.33;2.23;;;19.30;99.90;;;;;;4993565;28;20642;-49
2022/09/03 00:19:47;;;;;;;5.10;2.27;;;19.30;99.90;;;;;;4991266;28;20245;-49
2022/09/03 00:22:28;;;;;;;5.37;2.23;;;19.30;99.90;;;;;;4986862;28;20269;-50
2022/09/03 00:24:59;;;;;;;5.17;2.00;;;19.20;99.90;;;;;;4991170;28;20633;-50
2022/09/03 00:27:28;;;;;;;4.27;2.60;;;19.20;99.90;;;;;;4989479;28;20209;-50
2022/09/03 00:30:05;;;;;;;2.90;2.30;;;19.20;99.90;;;;;;5021232;28;20205;-49
2022/09/03 00:32:49;;;;;;;3.00;2.73;;;19.20;99.90;;;;;;4997150;28;20665;-49
2022/09/03 00:35:23;;;;;;;2.63;1.87;;;19.20;99.90;;;;;;4993786;28;20208;-50
2022/09/03 00:37:52;;;;;;;3.20;2.30;;;19.10;99.90;;;;;;4991788;28;20211;-50
2022/09/03 00:41:05;;;;;;;4.70;2.30;;;19.00;99.90;;;;;;4990031;28;20250;-50
2022/09/03 00:44:12;;;;;;;6.47;2.50;;;19.00;99.90;;;;;;4943542;28;20206;-52
2022/09/03 00:47:01;;;;;;;4.57;2.13;;;19.00;99.90;;;;;;4977514;28;20296;-49
2022/09/03 00:50:06;;;;;;;3.27;2.60;;;19.00;99.90;;;;;;4985675;28;20715;-51
2022/09/03 00:52:45;;;;;;;4.93;2.40;;;18.90;99.90;;;;;;4976909;28;20685;-49
2022/09/03 00:55:47;;;;;;;4.13;2.90;;;18.90;99.90;;;;;;4990810;28;20284;-49
2022/09/03 00:58:42;;;;;;;3.60;2.50;;;18.80;99.90;;;;;;4985876;28;20198;-50
2022/09/03 01:01:39;;;;;;;4.07;2.40;;;18.80;99.90;;;;;;4991803;28;20237;-52
2022/09/03 01:04:24;;;;;;;5.60;2.37;;;18.80;99.90;;;;;;4988450;28;20204;-51
2022/09/03 01:07:18;;;;;;;3.37;2.30;;;18.70;99.90;;;;;;5022550;28;20317;-50
2022/09/03 01:09:54;;;;;;;2.57;2.00;;;18.70;99.90;;;;;;4984653;28;20632;-48
2022/09/03 01:12:33;;;;;;;2.77;2.13;;;18.60;99.90;;;;;;4980281;28;20216;-51
2022/09/03 01:15:41;;;;;;;2.30;1.97;;;18.60;99.90;;;;;;4988875;28;20345;-50
2022/09/03 01:18:20;;;;;;;4.37;2.40;;;18.60;99.90;;;;;;4989544;28;20209;-50
2022/09/03 01:21:12;;;;;;;3.40;2.30;;;18.60;99.90;;;;;;4987331;28;20217;-50
2022/09/03 01:24:11;;;;;;;5.00;2.67;;;18.50;99.90;;;;;;4988730;28;20198;-51
2022/09/03 01:26:57;;;;;;;4.50;2.00;;;18.50;99.90;;;;;;4989677;28;20685;-49
2022/09/03 01:29:36;;;;;;;2.80;2.00;;;18.50;99.90;;;;;;4988159;28;20212;-51
2022/09/03 01:32:30;;;;;;;3.73;2.47;;;18.50;99.90;;;;;;4989825;28;20214;-50
2022/09/03 01:35:04;;;;;;;4.37;3.23;;;18.50;99.90;;;;;;4990031;28;20220;-52
2022/09/03 01:37:53;;;;;;;5.83;2.73;;;18.50;99.90;;;;;;4997794;28;20276;-50
2022/09/03 01:40:49;;;;;;;3.60;2.67;;;18.50;99.90;;;;;;4992421;28;20650;-57
2022/09/03 01:43:31;;;;;;;5.77;3.30;;;18.40;99.90;;;;;;4993434;28;20884;-49
2022/09/03 01:46:03;;;;;;;4.13;2.63;;;18.40;99.90;;;;;;4991742;28;20409;-51
2022/09/03 01:48:41;;;;;;;2.57;2.17;;;18.30;99.90;;;;;;4993709;28;20204;-50
2022/09/03 01:51:19;;;;;;;2.53;2.23;;;18.30;99.90;;;;;;4988206;28;20346;-50
2022/09/03 01:54:09;;;;;;;4.20;2.27;;;18.30;99.90;;;;;;4994644;28;20212;-49
2022/09/03 01:57:08;;;;;;;2.93;2.00;;;18.30;99.90;;;;;;4993313;28;20240;-50
2022/09/03 02:00:07;;;;;;;3.00;2.20;;;18.30;99.90;;;;;;4991694;28;20227;-51
2022/09/03 02:02:34;;;;;;;4.13;2.30;;;18.30;99.90;;;;;;4995356;28;20287;-51
2022/09/03 02:05:11;;;;;;;2.67;2.23;;;18.30;99.90;;;;;;4990715;28;21822;-50
2022/09/03 02:07:42;;;;;;;4.07;2.20;;;18.30;99.90;;;;;;5022672;28;20225;-49
2022/09/03 02:10:30;;;;;;;3.33;2.73;;;18.20;99.90;;;;;;4979091;28;20564;-49
2022/09/03 02:13:22;;;;;;;7.23;2.80;;;18.20;99.90;;;;;;4990012;28;20238;-49
2022/09/03 02:15:52;;;;;;;4.07;2.30;;;18.20;99.90;;;;;;4992501;28;20229;-50
2022/09/03 02:18:32;;;;;;;3.03;2.30;;;18.20;99.90;;;;;;5006550;28;20653;-50
2022/09/03 02:21:00;;;;;;;2.63;2.13;;;18.20;99.90;;;;;;4986935;28;20311;-51
2022/09/03 02:23:27;;;;;;;4.07;2.70;;;18.20;99.90;;;;;;4994072;28;20858;-49
2022/09/03 02:25:58;;;;;;;3.10;1.90;;;18.10;99.90;;;;;;4976984;28;20342;-49
2022/09/03 02:28:27;;;;;;;5.17;2.53;;;18.20;99.90;;;;;;4991978;28;20213;-51
2022/09/03 02:30:55;;;;;;;4.17;2.33;;;18.10;99.90;;;;;;4991041;28;20652;-49
2022/09/03 02:33:23;;;;;;;3.47;1.90;;;18.20;99.90;;;;;;4991833;28;20220;-49
2022/09/03 02:35:50;;;;;;;6.63;2.00;;;18.10;99.90;;;;;;4989678;28;20233;-49
2022/09/03 02:38:20;;;;;;;3.23;1.90;;;18.10;99.90;;;;;;4992199;28;20305;-50
2022/09/03 02:40:47;;;;;;;3.93;1.90;;;18.00;99.90;;;;;;4988378;28;20212;-51
2022/09/03 02:43:22;;;;;;;3.33;1.93;;;18.00;99.90;;;;;;4991835;28;20300;-50
2022/09/03 02:45:56;;;;;;;2.27;2.07;;;18.10;99.90;;;;;;4993681;28;20205;-50
2022/09/03 02:48:24;;;;;;;4.70;2.10;;;18.10;99.90;;;;;;4991189;28;20295;-48
2022/09/03 02:50:51;;;;;;;3.63;2.30;;;18.10;99.90;;;;;;4996466;28;20249;-50
2022/09/03 02:53:18;;;;;;;4.40;2.27;;;18.00;99.90;;;;;;4993026;28;20206;-48
2022/09/03 02:55:46;;;;;;;4.83;2.40;;;17.90;99.90;;;;;;4990972;28;20233;-52
2022/09/03 02:58:12;;;;;;;6.63;1.90;;;17.80;99.90;;;;;;4979943;28;20218;-51
2022/09/03 03:00:40;;;;;;;4.67;3.00;;;17.80;99.90;;;;;;4991112;28;20241;-50
2022/09/03 03:03:07;;;;;;;2.73;2.00;;;17.90;99.90;;;;;;4990329;28;20207;-51
2022/09/03 03:05:45;;;;;;;3.40;2.17;;;17.80;99.90;;;;;;4985192;28;20637;-48
2022/09/03 03:08:13;;;;;;;4.80;2.67;;;17.80;99.90;;;;;;4991203;28;20209;-49
2022/09/03 03:10:43;;;;;;;2.97;1.90;;;17.90;99.90;;;;;;4994703;28;20256;-51
2022/09/03 03:13:11;;;;;;;3.20;2.10;;;17.80;99.90;;;;;;4990351;28;20213;-49
2022/09/03 03:15:38;;;;;;;3.73;2.07;;;17.90;99.90;;;;;;4990944;28;20247;-51
2022/09/03 03:18:06;;;;;;;3.17;2.00;;;17.80;99.90;;;;;;4991416;28;20264;-50
2022/09/03 03:20:33;;;;;;;5.17;2.07;;;17.90;99.90;;;;;;4992703;28;20272;-50
2022/09/03 03:23:01;;;;;;;3.73;2.00;;;17.90;99.90;;;;;;4994509;28;20210;-51
2022/09/03 03:25:28;;;;;;;3.37;2.00;;;17.90;99.90;;;;;;4987525;28;20277;-50
2022/09/03 03:27:55;;;;;;;3.90;1.73;;;17.80;99.90;;;;;;4990528;28;20218;-51
2022/09/03 03:30:22;;;;;;;2.30;1.50;;;17.70;99.90;;;;;;4988070;28;21569;-50
2022/09/03 03:32:52;;;;;;;4.53;1.93;;;17.80;99.90;;;;;;4989557;28;20205;-50
2022/09/03 03:35:24;;;;;;;3.40;1.70;;;17.80;99.90;;;;;;4991272;28;20301;-50
2022/09/03 03:37:51;;;;;;;3.53;2.20;;;17.80;99.90;;;;;;4991824;28;20257;-49
2022/09/03 03:40:19;;;;;;;2.60;1.77;;;17.70;99.90;;;;;;5024007;28;20774;-49
2022/09/03 03:42:45;;;;;;;2.80;2.00;;;17.70;99.90;;;;;;4998158;28;20614;-49
2022/09/03 03:45:12;;;;;;;2.77;2.00;;;17.70;99.90;;;;;;4994879;28;21041;-50
2022/09/03 03:47:39;;;;;;;3.53;2.33;;;17.60;99.90;;;;;;4992170;28;20279;-50
2022/09/03 03:50:06;;;;;;;4.00;2.10;;;17.50;99.90;;;;;;4992022;28;20383;-49
2022/09/03 03:52:33;;;;;;;2.37;2.07;;;17.60;99.90;;;;;;4996015;28;20201;-50
2022/09/03 03:55:00;;;;;;;3.50;2.57;;;17.60;99.90;;;;;;4992029;28;20661;-52
2022/09/03 03:57:29;;;;;;;2.90;2.10;;;17.60;99.90;;;;;;4978011;28;20300;-49
2022/09/03 03:59:56;;;;;;;5.07;2.17;;;17.50;99.90;;;;;;4991180;28;20255;-50
2022/09/03 04:02:24;;;;;;;2.53;1.80;;;17.60;99.90;;;;;;4964778;28;20790;-51
2022/09/03 04:04:51;;;;;;;3.40;2.27;;;17.60;99.90;;;;;;4987991;28;20214;-50
2022/09/03 04:07:17;;;;;;;3.20;2.03;;;17.60;99.90;;;;;;4988285;28;20194;-51
2022/09/03 04:09:45;;;;;;;3.53;2.10;;;17.60;99.90;;;;;;4990365;28;20202;-50
2022/09/03 04:12:12;;;;;;;2.63;1.83;;;17.60;99.90;;;;;;4990545;28;20256;-49
2022/09/03 04:14:39;;;;;;;2.93;1.90;;;17.60;99.90;;;;;;4987881;28;20285;-50
2022/09/03 04:17:06;;;;;;;4.90;2.00;;;17.40;99.90;;;;;;4989044;28;20197;-50
2022/09/03 04:19:38;;;;;;;2.70;2.00;;;17.50;99.90;;;;;;5019965;28;20271;-50
2022/09/03 04:22:05;;;;;;;4.87;1.97;;;17.40;99.90;;;;;;4985543;28;20220;-51
2022/09/03 04:24:32;;;;;;;2.43;1.90;;;17.40;99.90;;;;;;4988977;28;20650;-48
2022/09/03 04:26:59;;;;;;;2.37;1.87;;;17.40;99.90;;;;;;4989572;28;20243;-49
2022/09/03 04:29:29;;;;;;;4.10;2.10;;;17.30;99.90;;;;;;4985255;28;20208;-51
2022/09/03 04:34:41;;;;;;;5.03;2.03;;;17.40;99.90;;;;;;4990125;28;20317;-50
2022/09/03 04:37:09;;;;;;;3.23;1.90;;;17.30;99.90;;;;;;4986899;28;20215;-50
2022/09/03 04:39:36;;;;;;;5.30;2.03;;;17.20;99.90;;;;;;4987276;28;20228;-50
2022/09/03 04:42:03;;;;;;;2.77;1.77;;;17.30;99.90;;;;;;4991679;28;20679;-50
2022/09/03 04:44:30;;;;;;;2.53;1.80;;;17.20;99.90;;;;;;4989764;28;20331;-49
2022/09/03 04:46:57;;;;;;;3.90;2.10;;;17.20;99.90;;;;;;4987016;28;20213;-50
2022/09/03 04:49:24;;;;;;;3.07;1.90;;;17.20;99.90;;;;;;4983844;28;20344;-54
2022/09/03 04:51:51;;;;;;;2.17;1.90;;;17.20;99.90;;;;;;4985436;28;20333;-52
2022/09/03 04:54:18;;;;;;;3.63;1.60;;;17.20;99.90;;;;;;4989575;28;20320;-51
2022/09/03 04:56:45;;;;;;;3.93;1.77;;;17.30;99.90;;;;;;4991551;28;20209;-49
2022/09/03 04:59:12;;;;;;;4.70;1.90;;;17.20;99.90;;;;;;4987991;28;20280;-47
2022/09/03 05:01:39;;;;;;;3.37;2.13;;;17.20;99.90;;;;;;4990440;28;20216;-49
2022/09/03 05:04:07;;;;;;;8.27;2.00;;;17.20;99.90;;;;;;4990189;28;20201;-49
2022/09/03 05:06:35;;;;;;;2.90;1.90;;;17.10;99.90;;;;;;4992052;28;20256;-49
2022/09/03 05:09:04;;;;;;;3.80;1.80;;;17.10;99.90;;;;;;4991542;28;20202;-49
2022/09/03 05:11:31;;;;;;;2.97;2.20;;;17.00;99.90;;;;;;4992553;28;20261;-49
2022/09/03 05:13:59;;;;;;;3.17;2.03;;;17.10;99.90;;;;;;4994845;28;20294;-50
2022/09/03 05:16:28;;;;;;;5.83;1.87;;;17.10;99.90;;;;;;4991121;28;20208;-49
2022/09/03 05:19:00;;;;;;;2.50;1.83;;;17.10;99.90;;;;;;4992792;28;20697;-50
2022/09/03 05:21:28;;;;;;;5.80;2.03;;;17.10;99.90;;;;;;4989401;28;20291;-52
2022/09/03 05:23:55;;;;;;;4.27;2.30;;;17.20;99.90;;;;;;4995262;28;20323;-50
2022/09/03 05:26:25;;;;;;;5.30;2.20;;;17.20;99.90;;;;;;4995279;28;20273;-50
2022/09/03 05:28:54;;;;;;;3.73;2.10;;;17.10;99.90;;;;;;4994839;28;20240;-51
2022/09/03 05:31:24;;;;;;;4.40;2.80;;;17.00;99.90;;;;;;4986806;28;20300;-52
2022/09/03 05:33:53;;;;;;;4.57;2.10;;;17.10;99.90;;;;;;4990396;28;20215;-53
2022/09/03 05:36:22;;;;;;;3.03;2.17;;;17.10;99.90;;;;;;4993476;28;20206;-50
2022/09/03 05:38:53;;;;;;;4.60;2.30;;;17.10;99.90;;;;;;4996945;28;20205;-50
2022/09/03 05:41:20;;;;;;;2.73;2.07;;;17.00;99.90;;;;;;4993391;28;20636;-50
2022/09/03 05:43:55;;;;;;;2.60;2.00;;;17.10;99.90;;;;;;4994416;28;20721;-49
2022/09/03 05:46:26;;;;;;;5.90;2.97;;;17.20;99.90;;;;;;4992882;28;20259;-49
2022/09/03 05:48:53;;;;;;;5.27;1.70;;;17.00;99.90;;;;;;4993686;28;20234;-52
2022/09/03 05:51:20;;;;;;;5.67;2.40;;;17.00;99.90;;;;;;4988243;28;20288;-51
2022/09/03 05:53:48;;;;;;;7.73;2.00;;;17.00;99.90;;;;;;4991356;28;20211;-50
2022/09/03 05:56:20;;;;;;;6.53;2.53;;;17.00;99.90;;;;;;4638699;28;10000192;-50
2022/09/03 05:58:49;;;;;;;4.77;1.80;;;17.00;99.90;;;;;;4987681;28;20203;-50
2022/09/03 06:01:28;;;;;;;4.73;1.90;;;17.10;99.90;;;;;;4987965;28;20775;-48
2022/09/03 06:03:58;;;;;;;4.83;2.10;;;17.10;99.90;;;;;;4992569;28;20749;-51
2022/09/03 06:06:26;;;;;;;4.20;1.90;;;17.20;99.90;;;;;;4989763;28;20835;-49
2022/09/03 06:08:59;;;;;;;6.93;2.00;;;17.10;99.90;;;;;;4988201;28;20202;-49
2022/09/03 06:11:27;;;;;;;3.63;2.20;;;17.10;99.90;;;;;;4993196;28;20248;-49
2022/09/03 06:13:55;;;;;;;4.80;2.17;;;17.10;99.90;;;;;;4993025;28;20205;-49
2022/09/03 06:16:23;;;;;;;3.50;2.10;;;17.20;99.90;;;;;;5001219;28;20595;-50
2022/09/03 06:18:58;;;;;;;4.83;2.40;;;17.10;99.90;;;;;;5000135;28;20665;-52
2022/09/03 06:21:26;;;;;;;7.47;2.90;;;17.20;99.90;;;;;;4999703;28;20216;-49
2022/09/03 06:23:57;;;;;;;4.47;2.53;;;17.20;99.90;;;;;;4998445;28;20298;-50
2022/09/03 06:26:27;;;;;;;4.33;2.37;;;17.30;99.90;;;;;;4998478;28;20291;-50
2022/09/03 06:28:55;;;;;;;2.93;2.20;;;17.40;99.90;;;;;;4997531;28;20259;-51
2022/09/03 06:31:23;;;;;;;3.70;2.20;;;17.40;99.90;;;;;;4991243;28;20250;-49
2022/09/03 06:33:52;;;;;;;3.37;2.03;;;17.40;99.90;;;;;;5027441;28;20223;-49
2022/09/03 06:36:21;;;;;;;4.27;2.27;;;17.40;99.90;;;;;;4994756;28;20290;-49
2022/09/03 06:38:51;;;;;;;3.77;2.30;;;17.40;99.90;;;;;;4997985;28;20224;-49
2022/09/03 06:41:24;;;;;;;4.73;2.30;;;17.40;99.90;;;;;;5029845;28;20218;-51
2022/09/03 06:44:01;;;;;;;3.17;2.20;;;17.50;99.90;;;;;;4998071;28;20296;-50
2022/09/03 06:46:31;;;;;;;2.60;2.40;;;17.50;99.90;;;;;;4996301;28;20209;-50
2022/09/03 06:48:59;;;;;;;3.87;2.23;;;17.60;99.90;;;;;;4996009;28;20356;-50
2022/09/03 06:51:28;;;;;;;3.97;2.10;;;17.70;99.90;;;;;;4991141;28;20290;-49
2022/09/03 06:54:00;;;;;;;2.17;1.97;;;17.60;99.90;;;;;;4997042;28;20235;-50
2022/09/03 06:56:28;;;;;;;2.60;2.10;;;17.70;99.90;;;;;;4995788;28;20212;-49
2022/09/03 06:58:57;;;;;;;4.47;2.53;;;17.50;99.90;;;;;;4996232;28;20248;-49
2022/09/03 07:01:29;;;;;;;2.87;2.00;;;17.40;99.90;;;;;;4992943;28;20301;-49
2022/09/03 07:04:02;;;;;;;4.57;2.53;;;17.60;99.90;;;;;;4992126;28;20207;-51
2022/09/03 07:06:36;;;;;;;6.37;2.43;;;17.80;99.90;;;;;;4997483;28;20758;-50
2022/09/03 07:09:03;;;;;;;2.53;2.33;;;18.00;99.90;;;;;;4998471;28;20708;-49
2022/09/03 07:11:32;;;;;;;3.07;2.10;;;18.10;99.90;;;;;;4998618;28;20757;-48
2022/09/03 07:13:59;;;;;;;4.77;2.20;;;18.00;99.90;;;;;;4988802;28;20209;-50
2022/09/03 07:16:34;;;;;;;4.97;2.50;;;18.10;99.90;;;;;;4990350;28;20206;-51
2022/09/03 07:19:03;;;;;;;2.50;2.30;;;18.20;99.90;;;;;;4992566;28;20212;-49
2022/09/03 07:21:35;;;;;;;3.57;2.03;;;18.10;99.90;;;;;;4984577;28;20321;-51
2022/09/03 07:24:04;;;;;;;2.40;2.07;;;18.20;99.90;;;;;;4984953;28;20221;-50
2022/09/03 07:26:37;;;;;;;2.97;2.30;;;18.30;99.90;;;;;;4986064;28;20206;-51
2022/09/03 07:29:10;;;;;;;4.63;2.20;;;18.50;99.90;;;;;;4986465;28;20326;-52
2022/09/03 07:31:39;;;;;;;2.37;2.10;;;18.70;99.90;;;;;;4989465;28;20202;-52
2022/09/03 07:34:08;;;;;;;4.40;2.30;;;19.00;99.90;;;;;;4991745;28;20256;-50
2022/09/03 07:36:44;;;;;;;7.63;1.97;;;19.20;99.90;;;;;;4982854;28;20576;-50
2022/09/03 07:39:13;;;;;;;6.00;2.40;;;19.30;99.90;;;;;;4988067;28;20737;-50
2022/09/03 07:41:44;;;;;;;3.77;2.20;;;19.40;99.90;;;;;;4976941;28;20313;-50
2022/09/03 07:44:14;;;;;;;2.80;2.10;;;19.60;99.90;;;;;;4985080;28;20292;-50
2022/09/03 07:46:42;;;;;;;4.77;2.10;;;19.70;99.90;;;;;;4986520;28;20205;-48
2022/09/03 07:49:10;;;;;;;3.23;2.10;;;19.70;99.90;;;;;;4990794;28;20232;-52
2022/09/03 07:51:38;;;;;;;4.67;1.93;;;19.80;99.90;;;;;;4998388;28;20268;-49
2022/09/03 07:54:09;;;;;;;4.03;2.30;;;19.80;99.90;;;;;;4996590;28;20699;-50
2022/09/03 07:56:39;;;;;;;6.83;2.10;;;19.70;99.90;;;;;;4977148;28;20757;-51
2022/09/03 07:59:07;;;;;;;7.40;2.10;;;19.90;99.90;;;;;;4985676;28;20221;-50
2022/09/03 08:01:35;;;;;;;3.83;1.73;;;20.10;99.90;;;;;;4978735;28;20265;-50
2022/09/03 08:04:05;;;;;;;3.63;2.00;;;20.10;99.90;;;;;;4988511;28;20204;-50
2022/09/03 08:06:36;;;;;;;3.13;2.13;;;20.30;99.90;;;;;;4985803;28;20202;-51
2022/09/03 08:09:05;;;;;;;6.93;1.90;;;20.50;99.90;;;;;;4998092;28;20259;-49
2022/09/03 08:11:36;;;;;;;4.73;1.87;;;20.60;99.90;;;;;;4997532;28;20213;-50
2022/09/03 08:14:09;;;;;;;5.03;1.97;;;20.70;99.90;;;;;;4997865;28;20700;-52
2022/09/03 08:16:46;;;;;;;6.03;1.80;;;20.70;99.90;;;;;;4998778;28;20216;-52
2022/09/03 08:19:13;;;;;;;4.77;1.70;;;20.80;99.90;;;;;;4997511;28;20209;-50
2022/09/03 08:21:40;;;;;;;4.07;2.10;;;20.90;99.90;;;;;;4998426;28;20264;-50
2022/09/03 08:24:09;;;;;;;4.20;1.83;;;21.10;99.90;;;;;;4997984;28;20708;-51
2022/09/03 08:26:40;;;;;;;4.83;2.10;;;21.30;99.90;;;;;;4996605;28;20205;-51
2022/09/03 08:29:08;;;;;;;7.07;2.97;;;21.50;99.90;;;;;;4998599;28;20213;-51
2022/09/03 08:31:35;;;;;;;3.53;2.00;;;21.70;99.90;;;;;;4997754;28;20665;-52
2022/09/03 08:34:05;;;;;;;2.93;1.77;;;21.80;99.90;;;;;;4998051;28;20265;-49
2022/09/03 08:36:35;;;;;;;2.30;1.70;;;21.90;99.90;;;;;;4999240;28;20228;-51
2022/09/03 08:39:08;;;;;;;3.03;1.73;;;21.70;99.90;;;;;;4993210;28;20214;-51
2022/09/03 08:41:54;;;;;;;4.40;1.77;;;21.60;99.90;;;;;;4979907;28;20221;-50
2022/09/03 08:44:27;;;;;;;2.93;1.77;;;21.50;99.90;;;;;;4984922;28;20231;-49
2022/09/03 08:47:19;;;;;;;6.20;1.87;;;21.70;99.90;;;;;;4984603;28;20268;-51
2022/09/03 08:50:25;;;;;;;4.43;1.97;;;22.00;99.90;;;;;;4986481;28;20253;-50
2022/09/03 08:53:13;;;;;;;4.87;1.73;;;22.30;99.90;;;;;;4977767;28;20300;-51
2022/09/03 08:55:46;;;;;;;6.97;2.20;;;22.50;99.90;;;;;;4983851;28;20239;-51
2022/09/03 08:58:24;;;;;;;5.90;2.00;;;22.80;99.90;;;;;;4982115;28;21381;-52
2022/09/03 09:01:23;;;;;;;7.27;1.87;;;23.20;99.90;;;;;;4982473;28;20216;-50
2022/09/03 09:04:02;;;;;;;2.73;1.57;;;23.50;99.90;;;;;;4984497;28;20941;-50
2022/09/03 09:06:54;;;;;;;2.27;1.80;;;23.40;99.90;;;;;;4985332;28;20338;-51
2022/09/03 09:09:34;;;;;;;5.20;2.20;;;23.50;99.90;;;;;;4986821;28;20205;-52
2022/09/03 09:12:24;;;;;;;2.67;1.83;;;23.60;99.90;;;;;;4990326;28;20289;-50
2022/09/03 09:15:16;;;;;;;8.27;2.00;;;23.70;99.90;;;;;;4988220;28;20256;-51
2022/09/03 09:18:08;;;;;;;6.40;2.07;;;23.90;99.90;;;;;;4987339;28;20225;-51
2022/09/03 09:20:57;;;;;;;4.93;2.07;;;24.00;99.90;;;;;;4990933;28;20216;-50
2022/09/03 09:23:33;;;;;;;5.13;2.60;;;23.80;99.90;;;;;;4987157;28;20307;-51
2022/09/03 09:26:05;;;;;;;7.03;2.57;;;23.90;99.90;;;;;;4992561;28;20280;-52
2022/09/03 09:28:37;;;;;;;11.93;3.88;;;23.70;99.90;;;;;;4985101;28;20233;-50
2022/09/03 09:31:08;;;;;;;7.73;3.03;;;23.40;99.90;;;;;;4995899;28;20321;-51
2022/09/03 09:33:36;;;;;;;4.57;2.20;;;23.60;99.90;;;;;;4993346;28;20207;-53
2022/09/03 09:36:10;;;;;;;8.50;2.70;;;24.00;99.90;;;;;;4992454;28;20245;-50
2022/09/03 09:38:38;;;;;;;4.93;2.00;;;24.40;99.90;;;;;;4988877;28;20239;-52
2022/09/03 09:41:20;;;;;;;8.13;2.00;;;24.60;99.90;;;;;;4981757;28;20206;-51
2022/09/03 09:44:04;;;;;;;6.73;2.20;;;24.50;99.90;;;;;;4996237;28;20289;-51
2022/09/03 09:46:41;;;;;;;3.10;2.30;;;24.80;99.90;;;;;;4990914;28;20249;-50
2022/09/03 09:49:37;;;;;;;4.07;2.30;;;24.50;99.90;;;;;;4989995;28;20581;-52
2022/09/03 09:52:13;;;;;;;10.30;2.83;;;24.30;99.90;;;;;;4978585;28;20742;-50
2022/09/03 09:54:42;;;;;;;5.67;2.20;;;24.30;99.90;;;;;;4994674;28;20764;-51
2022/09/03 09:57:21;;;;;;;3.87;2.00;;;24.40;99.90;;;;;;4999859;28;20577;-53
2022/09/03 09:59:49;;;;;;;3.83;2.10;;;24.30;99.90;;;;;;4992119;28;20809;-54
2022/09/03 10:02:27;;;;;;;5.47;2.13;;;24.30;99.90;;;;;;4997055;28;20218;-50
2022/09/03 10:05:01;;;;;;;5.18;2.15;;;24.20;99.90;;;;;;4994785;28;20221;-52
2022/09/03 10:07:30;;;;;;;3.73;2.00;;;24.40;99.90;;;;;;4999779;28;20217;-49
2022/09/03 10:10:05;;;;;;;6.25;2.63;;;24.50;99.90;;;;;;4995301;28;20202;-52
2022/09/03 10:12:57;;;;;;;7.85;2.35;;;24.50;99.90;;;;;;4992073;28;20930;-52
2022/09/03 10:15:36;;;;;;;7.53;1.77;;;24.40;99.90;;;;;;4990440;28;20202;-54
2022/09/03 10:18:26;;;;;;;3.60;1.70;;;24.40;99.90;;;;;;4996652;28;20240;-55
2022/09/03 10:21:18;;;;;;;5.30;2.10;;;24.50;99.90;;;;;;4989757;28;20209;-53
2022/09/03 10:24:24;;;;;;;3.90;2.17;;;24.50;99.90;;;;;;4990371;28;20197;-57
2022/09/03 10:26:51;;;;;;;2.58;1.88;;;24.40;99.90;;;;;;4978414;28;20264;-54
2022/09/03 10:29:21;;;;;;;9.05;1.88;;;24.60;99.90;;;;;;4990729;28;20210;-54
2022/09/03 10:32:12;;;;;;;4.75;1.80;;;24.60;99.90;;;;;;4992790;28;20194;-54
2022/09/03 10:35:17;;;;;;;4.82;1.70;;;24.70;99.90;;;;;;4995069;28;20686;-53
2022/09/03 10:37:58;;;;;;;3.53;2.25;;;24.30;99.90;;;;;;4999516;28;20297;-53
2022/09/03 10:40:41;;;;;;;4.55;1.60;;;24.40;99.90;;;;;;4986133;28;20292;-54
2022/09/03 10:43:31;;;;;;;5.10;1.75;;;24.60;99.90;;;;;;4993358;28;20225;-53
2022/09/03 10:45:58;;;;;;;4.30;1.73;;;24.80;99.90;;;;;;4997595;28;20296;-53
2022/09/03 10:48:40;;;;;;;4.50;1.52;;;24.70;99.90;;;;;;4994599;28;20199;-53
2022/09/03 10:51:25;;;;;;;2.40;1.23;;;24.80;99.90;;;;;;4997175;28;20229;-53
2022/09/03 10:54:09;;;;;;;3.22;1.75;;;24.90;99.90;;;;;;4994911;28;20236;-54
2022/09/03 10:56:49;;;;;;;4.63;1.60;;;25.10;99.90;;;;;;4992948;28;20293;-53
2022/09/03 10:59:38;;;;;;;2.05;1.40;;;25.10;99.90;;;;;;4994755;28;20552;-53
2022/09/03 11:02:42;;;;;;;2.33;1.67;;;25.30;99.90;;;;;;4992143;28;20321;-52
2022/09/03 11:05:20;;;;;;;2.85;1.67;;;25.40;99.90;;;;;;4994648;28;20201;-55
2022/09/03 11:07:54;;;;;;;4.13;2.15;;;25.50;99.90;;;;;;4989282;28;20654;-53
2022/09/03 11:10:26;;;;;;;5.35;1.90;;;25.80;99.90;;;;;;4996213;28;20366;-54
2022/09/03 11:13:13;;;;;;;2.42;1.60;;;26.00;99.90;;;;;;4992410;28;20197;-53
2022/09/03 11:15:51;;;;;;;5.15;1.50;;;25.60;99.90;;;;;;4992962;28;20675;-54
2022/09/03 11:18:33;;;;;;;3.53;1.80;;;26.00;99.90;;;;;;4994066;28;20389;-53
2022/09/03 11:21:04;;;;;;;2.60;1.70;;;25.90;99.90;;;;;;4993684;28;20231;-56
2022/09/03 11:23:42;;;;;;;2.92;1.67;;;26.10;99.90;;;;;;4997405;28;20621;-57
2022/09/03 11:26:15;;;;;;;5.90;1.50;;;26.60;99.90;;;;;;4984080;28;20221;-55
2022/09/03 11:29:11;;;;;;;4.35;1.60;;;26.40;99.90;;;;;;4989333;28;20285;-55
2022/09/03 11:31:48;;;;;;;4.97;1.77;;;26.40;99.90;;;;;;4987763;28;20209;-55
2022/09/03 11:34:25;;;;;;;5.20;1.98;;;26.60;99.90;;;;;;4989817;28;20225;-58
2022/09/03 11:37:17;;;;;;;3.05;1.80;;;27.30;99.90;;;;;;4996225;28;20581;-57
2022/09/03 11:39:52;;;;;;;5.20;1.50;;;28.00;99.90;;;;;;4995952;28;20204;-55
2022/09/03 11:42:51;;;;;;;6.35;1.60;;;28.40;99.90;;;;;;4998013;28;20313;-55
2022/09/03 11:45:23;;;;;;;2.75;1.58;;;28.20;99.90;;;;;;4980529;28;20201;-56
2022/09/03 11:47:51;;;;;;;2.75;1.60;;;28.50;99.90;;;;;;4980547;28;20214;-56
2022/09/03 11:50:20;;;;;;;3.55;1.45;;;28.40;99.90;;;;;;4996590;28;20248;-55
2022/09/03 11:52:50;;;;;;;3.67;1.53;;;28.10;99.90;;;;;;4993782;28;20636;-54
2022/09/03 11:55:32;;;;;;;6.25;1.85;;;28.20;99.90;;;;;;4996530;28;20224;-56
2022/09/03 11:58:31;;;;;;;3.13;1.25;;;27.90;99.90;;;;;;4988000;28;20220;-57
2022/09/03 12:01:00;;;;;;;2.55;1.30;;;28.50;99.90;;;;;;4984796;28;20694;-56
2022/09/03 12:03:48;;;;;;;1.98;1.63;;;28.80;99.90;;;;;;4995340;28;20552;-58
2022/09/03 12:06:55;;;;;;;3.20;1.40;;;29.40;99.90;;;;;;4996145;28;20284;-57
2022/09/03 12:09:41;;;;;;;3.55;1.73;;;29.80;99.90;;;;;;4991366;28;20252;-55
2022/09/03 12:12:22;;;;;;;2.75;1.55;;;30.10;99.90;;;;;;4992504;28;20208;-56
2022/09/03 12:15:19;;;;;;;3.13;1.40;;;29.20;99.90;;;;;;4997806;28;20208;-56
2022/09/03 12:18:18;;;;;;;1.88;1.52;;;29.80;99.90;;;;;;4994005;28;20206;-55
2022/09/03 12:21:07;;;;;;;3.47;1.35;;;28.50;99.90;;;;;;4988742;28;20204;-57
2022/09/03 12:23:49;;;;;;;3.95;1.95;;;29.80;99.90;;;;;;4986711;28;20313;-57
2022/09/03 12:26:23;;;;;;;4.97;1.60;;;30.70;99.90;;;;;;4987919;28;20209;-56
2022/09/03 12:28:54;;;;;;;3.25;1.45;;;31.30;99.90;;;;;;4988603;28;20686;-55
2022/09/03 12:31:24;;;;;;;1.60;1.15;;;31.00;99.90;;;;;;4988764;28;20279;-60
2022/09/03 12:33:57;;;;;;;1.80;1.30;;;30.90;99.90;;;;;;4992484;28;20210;-56
2022/09/03 12:36:34;;;;;;;3.05;1.35;;;31.60;99.90;;;;;;4990701;28;20256;-55
2022/09/03 12:39:09;;;;;;;3.30;1.52;;;31.00;99.90;;;;;;4993015;28;20304;-56
2022/09/03 12:42:06;;;;;;;3.83;1.30;;;30.90;99.90;;;;;;4986753;28;20204;-56
2022/09/03 12:44:35;;;;;;;2.05;1.27;;;31.30;99.90;;;;;;4976488;28;20218;-55
2022/09/03 12:47:06;;;;;;;4.55;1.40;;;31.00;99.90;;;;;;4989486;28;20320;-56
2022/09/03 12:50:03;;;;;;;4.50;1.50;;;31.50;99.90;;;;;;4992792;28;20206;-56
2022/09/03 12:52:40;;;;;;;5.05;1.30;;;30.90;99.90;;;;;;4992603;28;20297;-57
2022/09/03 12:55:33;;;;;;;4.13;1.52;;;31.20;99.90;;;;;;4993117;28;20307;-58
2022/09/03 12:58:10;;;;;;;1.92;1.20;;;31.10;99.90;;;;;;5009502;28;20229;-56
2022/09/03 13:00:55;;;;;;;1.83;1.10;;;31.40;99.90;;;;;;4991246;28;20677;-56
2022/09/03 13:03:29;;;;;;;2.05;1.25;;;33.00;99.90;;;;;;4989519;28;20300;-56
2022/09/03 13:06:00;;;;;;;2.92;1.23;;;32.50;99.90;;;;;;4991864;28;20224;-55
2022/09/03 13:08:36;;;;;;;3.58;1.58;;;32.50;99.90;;;;;;4992118;28;20241;-55
2022/09/03 13:11:04;;;;;;;2.63;1.60;;;31.10;99.90;;;;;;4989552;28;20213;-58
2022/09/03 13:13:36;;;;;;;1.45;1.23;;;31.00;99.90;;;;;;4995086;28;20234;-57
2022/09/03 13:16:25;;;;;;;2.60;1.70;;;31.20;99.90;;;;;;4991624;28;20591;-57
2022/09/03 13:19:12;;;;;;;4.32;1.70;;;30.70;99.90;;;;;;4993050;28;20202;-58
2022/09/03 13:22:20;;;;;;;1.60;1.50;;;31.50;99.90;;;;;;4994356;28;20213;-55
2022/09/03 13:25:00;;;;;;;1.70;1.60;;;30.80;99.90;;;;;;4990859;28;20237;-57
2022/09/03 13:27:43;;;;;;;2.80;1.48;;;29.80;99.90;;;;;;4988193;28;20999;-56
2022/09/03 13:30:18;;;;;;;2.40;1.80;;;30.80;99.90;;;;;;4993937;28;20260;-56
2022/09/03 13:32:45;;;;;;;2.25;1.38;;;31.30;99.90;;;;;;4997687;28;20271;-55